CheckWX is a tool to help pilots better visualize weather data.  It is not intended as a substitute for an official pre-flight weather briefing.

01:35:18 UTC

KSEM METAR
Craig Field Airport
Selma, Alabama, USA
Current

60 mins ago

KSEM 200035Z AUTO 18004KT 10SM 24/22 A3007 RMK AO2
Observed
Jul-20 @ 00:35 UTC
Wind
  • 180° at 4 KTS
Visibility
10 SM
Temperature
24°C / 75°F
Dewpoint
22°C / 72°F
Humidity
89%
Altimeter
30.07" Hg
Pressure
1018.32 hPa
Previous

1 hour ago

KSEM 200015Z AUTO 16003KT 10SM 25/22 A3007 RMK AO2
Observed
Jul-20 @ 00:15 UTC
Wind
  • 160° at 3 KTS
Visibility
10 SM
Temperature
25°C / 77°F
Dewpoint
22°C / 72°F
Humidity
83%
Altimeter
30.07" Hg
Pressure
1018.32 hPa
Previous

2 hours ago

KSEM 192355Z AUTO 16007KT 10SM 25/22 A3006 RMK AO2
Observed
Jul-19 @ 23:55 UTC
Wind
  • 160° at 7 KTS
Visibility
10 SM
Temperature
25°C / 77°F
Dewpoint
22°C / 72°F
Humidity
83%
Altimeter
30.06" Hg
Pressure
1017.92 hPa